Time;durP1;ratioP1;P1;durP2;ratioP2;P2;SDS_P1;SDS_P2;PMS_P1;PMS_P2;Temp;Humidity;BMP_temperature;BMP_pressure;BME280_temperature;BME280_humidity;BME280_pressure;Samples;Min_cycle;Max_cycle;Signal;HPM_P1;HPM_P2
2021/06/21 00:00:07;;;;;;;;;;;23.30;78.10;;;;;;4336918;32;20111;-83
2021/06/21 00:02:37;;;;;;;;;;;23.30;78.20;;;;;;4336834;32;20422;-82
2021/06/21 00:05:11;;;;;;;;;;;23.30;78.20;;;;;;4337621;32;20011;-83
2021/06/21 00:07:44;;;;;;;;;;;23.20;78.20;;;;;;4337534;32;20007;-83
2021/06/21 00:10:18;;;;;;;;;;;23.20;78.20;;;;;;4335953;32;24761;-82
2021/06/21 00:12:48;;;;;;;;;;;23.20;78.40;;;;;;4336178;32;36375;-81
2021/06/21 00:15:26;;;;;;;;;;;23.20;78.40;;;;;;4336576;32;32980;-81
2021/06/21 00:17:54;;;;;;;;;;;23.20;78.60;;;;;;4335889;32;43829;-80
2021/06/21 00:20:25;;;;;;;;;;;23.20;78.70;;;;;;4336927;32;20448;-81
2021/06/21 00:22:56;;;;;;;;;;;23.20;78.70;;;;;;4363045;32;20039;-81
2021/06/21 00:25:28;;;;;;;;;;;23.20;78.80;;;;;;4348106;32;33855;-80
2021/06/21 00:28:01;;;;;;;;;;;23.20;78.80;;;;;;4348809;32;30013;-80
2021/06/21 00:30:28;;;;;;;;;;;23.10;78.80;;;;;;4335910;32;37421;-80
2021/06/21 00:32:59;;;;;;;;;;;23.10;78.90;;;;;;4337043;32;20068;-80
2021/06/21 00:35:26;;;;;;;;;;;23.10;79.00;;;;;;4348403;32;33229;-80
2021/06/21 00:37:57;;;;;;;;;;;23.10;79.80;;;;;;4348611;32;20059;-80
2021/06/21 00:40:25;;;;;;;;;;;23.10;79.10;;;;;;4336536;32;20013;-80
2021/06/21 00:42:52;;;;;;;;;;;23.10;79.10;;;;;;4335546;32;41929;-80
2021/06/21 00:45:20;;;;;;;;;;;23.10;79.10;;;;;;4335900;32;32019;-80
2021/06/21 00:47:52;;;;;;;;;;;23.10;79.10;;;;;;4361494;32;24087;-80
2021/06/21 00:50:23;;;;;;;;;;;23.00;79.10;;;;;;4348614;32;29465;-80
2021/06/21 00:52:53;;;;;;;;;;;23.00;79.20;;;;;;4335457;32;36544;-81
2021/06/21 00:55:22;;;;;;;;;;;23.00;79.30;;;;;;4348271;32;20016;-81
2021/06/21 00:57:50;;;;;;;;;;;23.00;79.40;;;;;;4336349;32;21065;-80
2021/06/21 01:00:21;;;;;;;;;;;23.00;79.40;;;;;;4347555;32;34539;-80
2021/06/21 01:02:48;;;;;;;;;;;23.00;79.50;;;;;;4347867;32;26823;-80
2021/06/21 01:05:17;;;;;;;;;;;23.00;79.50;;;;;;4347662;32;40144;-80
2021/06/21 01:07:45;;;;;;;;;;;23.00;79.60;;;;;;4361715;32;23236;-80
2021/06/21 01:10:13;;;;;;;;;;;23.00;79.60;;;;;;4336309;32;20012;-80
2021/06/21 01:12:49;;;;;;;;;;;23.00;79.70;;;;;;4361829;32;20075;-80
2021/06/21 01:15:18;;;;;;;;;;;23.00;79.70;;;;;;4335217;32;44115;-80
2021/06/21 01:17:57;;;;;;;;;;;23.00;79.80;;;;;;4336799;32;19997;-80
2021/06/21 01:20:24;;;;;;;;;;;22.90;79.80;;;;;;4362363;32;20005;-80
2021/06/21 01:22:54;;;;;;;;;;;22.90;79.80;;;;;;4348825;32;20088;-80
2021/06/21 01:25:24;;;;;;;;;;;22.90;79.80;;;;;;4336773;32;20096;-80
2021/06/21 01:27:57;;;;;;;;;;;22.90;79.90;;;;;;4336356;32;20431;-80
2021/06/21 01:30:43;;;;;;;;;;;22.90;80.00;;;;;;4362075;32;20445;-81
2021/06/21 01:33:11;;;;;;;;;;;22.90;80.00;;;;;;4348829;32;20016;-80
2021/06/21 01:35:48;;;;;;;;;;;22.90;80.20;;;;;;4335720;32;20015;-80
2021/06/21 01:38:21;;;;;;;;;;;22.90;80.20;;;;;;4348026;32;30836;-80
2021/06/21 01:40:53;;;;;;;;;;;22.90;80.30;;;;;;4334800;32;35731;-80
2021/06/21 01:43:29;;;;;;;;;;;22.90;80.40;;;;;;4347306;32;35435;-80
2021/06/21 01:46:01;;;;;;;;;;;22.90;80.40;;;;;;4347527;32;40864;-80
2021/06/21 01:48:32;;;;;;;;;;;22.80;80.40;;;;;;4362156;32;20390;-80
2021/06/21 01:51:05;;;;;;;;;;;22.80;80.40;;;;;;4336406;32;19997;-80
2021/06/21 01:53:36;;;;;;;;;;;22.80;80.50;;;;;;4347893;32;23178;-81
2021/06/21 01:56:12;;;;;;;;;;;22.80;80.60;;;;;;4347327;32;31612;-80
2021/06/21 01:58:45;;;;;;;;;;;22.80;80.60;;;;;;4347850;32;22907;-79
2021/06/21 02:01:17;;;;;;;;;;;22.80;80.60;;;;;;4361595;32;20016;-80
2021/06/21 02:03:49;;;;;;;;;;;22.80;80.70;;;;;;4347913;32;20039;-80
2021/06/21 02:06:20;;;;;;;;;;;22.80;80.70;;;;;;4347267;32;38881;-80
2021/06/21 02:08:49;;;;;;;;;;;22.70;80.70;;;;;;4347383;32;39568;-80
2021/06/21 02:11:19;;;;;;;;;;;22.70;80.70;;;;;;4335561;32;20240;-80
2021/06/21 02:13:50;;;;;;;;;;;22.70;80.80;;;;;;4335031;32;24809;-80
2021/06/21 02:16:23;;;;;;;;;;;22.70;80.90;;;;;;4334779;32;33294;-80
2021/06/21 02:18:51;;;;;;;;;;;22.70;80.90;;;;;;4347506;32;25927;-80
2021/06/21 02:21:24;;;;;;;;;;;22.70;81.00;;;;;;4347402;32;23432;-80
2021/06/21 02:23:55;;;;;;;;;;;22.70;80.90;;;;;;4346891;33;38861;-80
2021/06/21 02:26:30;;;;;;;;;;;22.70;80.90;;;;;;4346612;33;39445;-80
2021/06/21 02:29:06;;;;;;;;;;;22.70;81.00;;;;;;4334637;33;32881;-80
2021/06/21 02:31:38;;;;;;;;;;;22.70;81.00;;;;;;4335565;33;20003;-80
2021/06/21 02:34:13;;;;;;;;;;;22.60;80.90;;;;;;4363325;32;20015;-80
2021/06/21 02:36:44;;;;;;;;;;;22.60;80.90;;;;;;4338479;32;20428;-81
2021/06/21 02:39:12;;;;;;;;;;;22.60;81.00;;;;;;4364522;32;20057;-81
2021/06/21 02:41:45;;;;;;;;;;;22.60;81.00;;;;;;4351376;32;20432;-80
2021/06/21 02:44:21;;;;;;;;;;;22.60;81.80;;;;;;4350684;32;20068;-81
2021/06/21 02:46:51;;;;;;;;;;;22.60;81.20;;;;;;4351045;32;20005;-81
2021/06/21 02:49:29;;;;;;;;;;;22.60;81.20;;;;;;4338441;32;20019;-82
2021/06/21 02:52:03;;;;;;;;;;;22.60;81.20;;;;;;4350951;32;20027;-82
2021/06/21 02:54:49;;;;;;;;;;;22.50;81.20;;;;;;4350675;32;19997;-83
2021/06/21 02:57:29;;;;;;;;;;;22.50;81.20;;;;;;4362711;32;19998;-83
2021/06/21 02:59:59;;;;;;;;;;;22.50;81.30;;;;;;4350687;32;20001;-83
2021/06/21 03:02:38;;;;;;;;;;;22.40;81.30;;;;;;4350929;32;20009;-83
2021/06/21 03:05:11;;;;;;;;;;;22.40;81.30;;;;;;4338374;32;19997;-83
2021/06/21 03:07:39;;;;;;;;;;;22.40;81.40;;;;;;4364087;32;20053;-83
2021/06/21 03:10:11;;;;;;;;;;;22.40;81.50;;;;;;4350471;32;20048;-83
2021/06/21 03:12:40;;;;;;;;;;;22.40;81.60;;;;;;4364124;32;20444;-83
2021/06/21 03:15:15;;;;;;;;;;;22.40;81.60;;;;;;4338556;32;20027;-84
2021/06/21 03:17:49;;;;;;;;;;;22.40;81.70;;;;;;4338320;32;20379;-83
2021/06/21 03:20:20;;;;;;;;;;;22.40;81.60;;;;;;4350308;32;20046;-83
2021/06/21 03:23:00;;;;;;;;;;;22.40;81.70;;;;;;4338009;32;20404;-83
2021/06/21 03:25:31;;;;;;;;;;;22.30;81.60;;;;;;4338139;32;20068;-83
2021/06/21 03:28:12;;;;;;;;;;;22.40;81.70;;;;;;4337690;32;20060;-82
2021/06/21 03:30:42;;;;;;;;;;;22.30;81.70;;;;;;4338105;32;20044;-82
2021/06/21 03:33:12;;;;;;;;;;;22.30;81.80;;;;;;4337431;32;19997;-83
2021/06/21 03:35:47;;;;;;;;;;;22.30;81.80;;;;;;4338392;32;20003;-83
2021/06/21 03:38:20;;;;;;;;;;;22.30;81.90;;;;;;4337704;32;20420;-83
2021/06/21 03:40:48;;;;;;;;;;;22.30;81.90;;;;;;4350717;32;20028;-83
2021/06/21 03:43:22;;;;;;;;;;;22.30;81.90;;;;;;4337426;32;19992;-82
2021/06/21 03:46:01;;;;;;;;;;;22.30;81.90;;;;;;4348775;32;20065;-83
2021/06/21 03:48:36;;;;;;;;;;;22.30;82.00;;;;;;4349880;32;20007;-82
2021/06/21 03:51:09;;;;;;;;;;;22.30;82.00;;;;;;4337827;32;20515;-83
2021/06/21 03:53:39;;;;;;;;;;;22.30;82.00;;;;;;4337940;32;20016;-84
2021/06/21 03:56:12;;;;;;;;;;;22.20;82.00;;;;;;4349656;32;19997;-83
2021/06/21 03:58:40;;;;;;;;;;;22.30;82.20;;;;;;4350187;32;20450;-83
2021/06/21 04:01:11;;;;;;;;;;;22.20;82.10;;;;;;4337807;32;20011;-83
2021/06/21 04:03:42;;;;;;;;;;;22.20;82.10;;;;;;4346982;33;20055;-83
2021/06/21 04:06:17;;;;;;;;;;;22.20;82.30;;;;;;4347075;33;20006;-83
2021/06/21 04:08:47;;;;;;;;;;;22.20;82.20;;;;;;4335339;33;20064;-83
2021/06/21 04:11:17;;;;;;;;;;;22.10;82.20;;;;;;4348036;33;20413;-83
2021/06/21 04:13:48;;;;;;;;;;;22.10;82.20;;;;;;4347404;33;20382;-83
2021/06/21 04:16:22;;;;;;;;;;;22.10;82.30;;;;;;4334877;33;20061;-82
2021/06/21 04:18:49;;;;;;;;;;;22.10;82.30;;;;;;4334327;33;20382;-82
2021/06/21 04:21:17;;;;;;;;;;;22.10;82.30;;;;;;4347174;33;20045;-82
2021/06/21 04:23:44;;;;;;;;;;;22.10;82.40;;;;;;4334861;33;20263;-83
2021/06/21 04:26:11;;;;;;;;;;;22.10;82.40;;;;;;4334718;33;20036;-82
2021/06/21 04:28:38;;;;;;;;;;;22.10;82.40;;;;;;4334475;33;20015;-82
2021/06/21 04:31:06;;;;;;;;;;;22.00;82.40;;;;;;4334741;33;20012;-83
2021/06/21 04:33:39;;;;;;;;;;;22.00;82.50;;;;;;4334948;33;20001;-83
2021/06/21 04:36:09;;;;;;;;;;;22.00;82.50;;;;;;4334341;33;20061;-83
2021/06/21 04:38:37;;;;;;;;;;;22.00;82.60;;;;;;4334521;33;20324;-83
2021/06/21 04:41:04;;;;;;;;;;;22.00;82.50;;;;;;4346861;33;20068;-83
2021/06/21 04:43:35;;;;;;;;;;;22.00;82.50;;;;;;4346794;33;20032;-84
2021/06/21 04:46:03;;;;;;;;;;;22.00;82.50;;;;;;4347062;33;20019;-84
2021/06/21 04:48:33;;;;;;;;;;;22.00;82.40;;;;;;4334915;33;20002;-84
2021/06/21 04:51:06;;;;;;;;;;;22.00;82.50;;;;;;4335385;33;20527;-84
2021/06/21 04:53:38;;;;;;;;;;;22.00;82.50;;;;;;4348280;32;20098;-83
2021/06/21 04:56:09;;;;;;;;;;;22.00;82.50;;;;;;4334411;33;20007;-83
2021/06/21 04:58:39;;;;;;;;;;;22.00;82.50;;;;;;4334999;33;20043;-83
2021/06/21 05:01:13;;;;;;;;;;;21.90;82.40;;;;;;4334476;33;20497;-84
2021/06/21 05:03:43;;;;;;;;;;;21.90;82.40;;;;;;4333874;33;20010;-83
2021/06/21 05:06:14;;;;;;;;;;;21.90;82.40;;;;;;4347582;33;20019;-83
2021/06/21 05:08:43;;;;;;;;;;;21.90;82.50;;;;;;4332906;33;41133;-83
2021/06/21 05:11:11;;;;;;;;;;;21.90;82.40;;;;;;4334320;33;19994;-84
2021/06/21 05:13:41;;;;;;;;;;;21.90;82.50;;;;;;4333952;33;20060;-83
2021/06/21 05:16:11;;;;;;;;;;;21.90;82.50;;;;;;4346317;33;38701;-83
2021/06/21 05:18:41;;;;;;;;;;;21.90;82.50;;;;;;4345374;33;21782;-83
2021/06/21 05:21:08;;;;;;;;;;;21.90;82.50;;;;;;4333643;33;20056;-83
2021/06/21 05:23:38;;;;;;;;;;;21.80;82.50;;;;;;4333115;33;24802;-82
2021/06/21 05:26:08;;;;;;;;;;;21.80;82.50;;;;;;4333711;33;20061;-82
2021/06/21 05:28:39;;;;;;;;;;;21.80;82.50;;;;;;4347304;33;20001;-83
2021/06/21 05:31:09;;;;;;;;;;;21.80;82.60;;;;;;4345400;33;24281;-83
2021/06/21 05:33:39;;;;;;;;;;;21.80;82.60;;;;;;4346767;33;22419;-83
2021/06/21 05:36:12;;;;;;;;;;;21.80;82.60;;;;;;4334008;33;20076;-83
2021/06/21 05:38:40;;;;;;;;;;;21.70;82.50;;;;;;4332786;33;24164;-82
2021/06/21 05:41:10;;;;;;;;;;;21.70;82.50;;;;;;4333195;33;20005;-82
2021/06/21 05:43:41;;;;;;;;;;;21.70;82.60;;;;;;4345917;33;20031;-82
2021/06/21 05:46:08;;;;;;;;;;;21.70;82.50;;;;;;4345943;33;20032;-83
2021/06/21 05:48:35;;;;;;;;;;;21.70;82.50;;;;;;4332260;33;34272;-83
2021/06/21 05:51:06;;;;;;;;;;;21.70;82.40;;;;;;4345820;33;20411;-83
2021/06/21 05:53:33;;;;;;;;;;;21.70;82.50;;;;;;4333110;33;20072;-83
2021/06/21 05:56:00;;;;;;;;;;;21.70;82.40;;;;;;4332215;33;39227;-82
2021/06/21 05:58:28;;;;;;;;;;;21.70;82.40;;;;;;4344849;33;43416;-86
2021/06/21 06:00:56;;;;;;;;;;;21.60;82.40;;;;;;4344839;33;29857;-82
2021/06/21 06:03:23;;;;;;;;;;;21.60;82.40;;;;;;4332497;33;28288;-82
2021/06/21 06:05:51;;;;;;;;;;;21.60;82.50;;;;;;4344869;33;20029;-80
2021/06/21 06:08:20;;;;;;;;;;;21.60;82.50;;;;;;4331840;33;25697;-82
2021/06/21 06:10:48;;;;;;;;;;;21.60;82.40;;;;;;4344614;33;23604;-85
2021/06/21 06:13:15;;;;;;;;;;;21.60;82.50;;;;;;4332504;33;39007;-84
2021/06/21 06:15:42;;;;;;;;;;;21.60;82.40;;;;;;4332223;33;37286;-83
2021/06/21 06:18:09;;;;;;;;;;;21.50;82.30;;;;;;4344980;33;23857;-83
2021/06/21 06:20:36;;;;;;;;;;;21.50;82.30;;;;;;4332338;33;34308;-84
2021/06/21 06:23:05;;;;;;;;;;;21.50;82.40;;;;;;4344875;33;24669;-84
2021/06/21 06:25:32;;;;;;;;;;;21.50;82.40;;;;;;4344124;33;36403;-84
2021/06/21 06:27:59;;;;;;;;;;;21.50;82.30;;;;;;4331989;33;37949;-84
2021/06/21 06:30:26;;;;;;;;;;;21.50;82.40;;;;;;4332981;33;20074;-84
2021/06/21 06:32:54;;;;;;;;;;;21.50;82.40;;;;;;4331869;33;43505;-84
2021/06/21 06:35:21;;;;;;;;;;;21.50;82.40;;;;;;4331961;33;40944;-84
2021/06/21 06:37:51;;;;;;;;;;;21.50;82.50;;;;;;4332127;33;42532;-84
2021/06/21 06:40:18;;;;;;;;;;;21.40;82.40;;;;;;4331771;33;39115;-85
2021/06/21 06:42:50;;;;;;;;;;;21.40;82.40;;;;;;4331909;33;38133;-85
2021/06/21 06:45:17;;;;;;;;;;;21.40;82.50;;;;;;4344300;33;32442;-85
2021/06/21 06:47:45;;;;;;;;;;;21.40;82.40;;;;;;4331982;33;40615;-85
2021/06/21 06:50:13;;;;;;;;;;;21.40;82.50;;;;;;4331702;33;39186;-85
2021/06/21 06:52:44;;;;;;;;;;;21.40;82.50;;;;;;4345343;33;20072;-85
2021/06/21 06:57:58;;;;;;;;;;;21.30;82.40;;;;;;4344352;33;31834;-85
2021/06/21 07:00:26;;;;;;;;;;;21.30;82.40;;;;;;4332099;33;40081;-85
2021/06/21 07:02:53;;;;;;;;;;;21.30;82.40;;;;;;4331548;33;39360;-84
2021/06/21 07:05:23;;;;;;;;;;;21.20;82.40;;;;;;4333188;33;20001;-85
2021/06/21 07:07:54;;;;;;;;;;;21.20;82.50;;;;;;4343916;33;39713;-84
2021/06/21 07:10:21;;;;;;;;;;;21.20;82.70;;;;;;4333022;33;19993;-84
2021/06/21 07:12:48;;;;;;;;;;;21.20;82.60;;;;;;4331509;33;40958;-85
2021/06/21 07:15:18;;;;;;;;;;;21.20;82.70;;;;;;4332157;33;36117;-84
2021/06/21 07:17:46;;;;;;;;;;;21.20;82.70;;;;;;4331656;33;37075;-85
2021/06/21 07:20:14;;;;;;;;;;;21.20;82.70;;;;;;4333980;33;35573;-82
2021/06/21 07:22:47;;;;;;;;;;;21.10;82.50;;;;;;4346383;33;44709;-87
2021/06/21 07:25:14;;;;;;;;;;;21.10;82.50;;;;;;4334668;33;24326;-86
2021/06/21 07:27:41;;;;;;;;;;;21.10;82.60;;;;;;4334240;33;35396;-85
2021/06/21 07:30:09;;;;;;;;;;;21.00;82.60;;;;;;4334561;33;36932;-86
2021/06/21 07:32:36;;;;;;;;;;;21.00;82.70;;;;;;4347384;33;20013;-83
2021/06/21 07:35:04;;;;;;;;;;;21.00;82.80;;;;;;4334916;33;20180;-85
2021/06/21 07:37:31;;;;;;;;;;;21.00;82.80;;;;;;4346915;33;21442;-84
2021/06/21 07:39:59;;;;;;;;;;;21.00;82.80;;;;;;4335361;33;20019;-84
2021/06/21 07:42:26;;;;;;;;;;;21.00;82.70;;;;;;4334558;33;20802;-85
2021/06/21 07:44:53;;;;;;;;;;;21.00;82.60;;;;;;4335167;33;20069;-84
2021/06/21 07:47:23;;;;;;;;;;;20.90;82.60;;;;;;4335181;33;20013;-84
2021/06/21 07:49:50;;;;;;;;;;;20.90;82.60;;;;;;4335392;33;20083;-84
2021/06/21 07:52:18;;;;;;;;;;;21.00;82.70;;;;;;4334829;33;20005;-84
2021/06/21 07:54:49;;;;;;;;;;;20.90;82.70;;;;;;4347009;33;20004;-85
2021/06/21 07:57:17;;;;;;;;;;;20.90;82.60;;;;;;4334961;33;20055;-83
2021/06/21 07:59:44;;;;;;;;;;;20.90;82.60;;;;;;4347264;33;20006;-83
2021/06/21 08:02:11;;;;;;;;;;;20.90;82.60;;;;;;4335068;33;20459;-82
2021/06/21 08:04:38;;;;;;;;;;;20.90;82.70;;;;;;4335111;33;20005;-85
2021/06/21 08:07:06;;;;;;;;;;;20.90;82.70;;;;;;4335068;33;20045;-83
2021/06/21 08:09:33;;;;;;;;;;;20.90;82.60;;;;;;4334570;33;20063;-84
2021/06/21 08:12:00;;;;;;;;;;;20.90;82.80;;;;;;4347223;33;20076;-84
2021/06/21 08:14:27;;;;;;;;;;;20.90;82.80;;;;;;4335319;33;20053;-84
2021/06/21 08:16:55;;;;;;;;;;;20.90;82.90;;;;;;4334956;33;20004;-84
2021/06/21 08:19:22;;;;;;;;;;;20.90;82.90;;;;;;4335541;33;20006;-85
2021/06/21 08:21:49;;;;;;;;;;;20.90;82.90;;;;;;4335250;33;20466;-84
2021/06/21 08:24:17;;;;;;;;;;;20.90;82.90;;;;;;4347336;33;20084;-86
2021/06/21 08:26:44;;;;;;;;;;;20.90;82.90;;;;;;4335179;33;20053;-84
2021/06/21 08:29:11;;;;;;;;;;;20.90;83.00;;;;;;4335000;33;20009;-88
2021/06/21 08:31:39;;;;;;;;;;;20.80;83.00;;;;;;4334348;33;20405;-86
2021/06/21 08:34:06;;;;;;;;;;;20.80;83.00;;;;;;4334637;33;19994;-84
2021/06/21 08:36:33;;;;;;;;;;;20.80;83.00;;;;;;4334724;33;20048;-86
2021/06/21 08:39:01;;;;;;;;;;;20.80;83.10;;;;;;4333983;33;20007;-87
2021/06/21 08:41:28;;;;;;;;;;;20.80;83.20;;;;;;4334150;33;20002;-84
2021/06/21 08:43:55;;;;;;;;;;;20.80;83.20;;;;;;4334189;33;20037;-86
2021/06/21 08:46:22;;;;;;;;;;;20.90;83.20;;;;;;4334569;33;20012;-86
2021/06/21 08:48:55;;;;;;;;;;;20.90;83.20;;;;;;4346634;33;20398;-86
2021/06/21 08:51:22;;;;;;;;;;;20.90;83.30;;;;;;4334369;33;20016;-87
2021/06/21 08:53:50;;;;;;;;;;;20.90;83.20;;;;;;4334025;33;19997;-86
2021/06/21 08:56:17;;;;;;;;;;;20.90;83.20;;;;;;4334079;33;20061;-86
2021/06/21 08:58:44;;;;;;;;;;;20.90;83.10;;;;;;4334176;33;20007;-86
2021/06/21 09:01:11;;;;;;;;;;;20.90;83.10;;;;;;4333767;33;20019;-86
2021/06/21 09:03:41;;;;;;;;;;;20.90;83.20;;;;;;4333504;33;20024;-87
2021/06/21 09:06:20;;;;;;;;;;;20.90;83.30;;;;;;4333815;33;20076;-86
2021/06/21 09:08:58;;;;;;;;;;;20.90;83.30;;;;;;4346077;33;20081;-86
2021/06/21 09:11:44;;;;;;;;;;;20.90;83.30;;;;;;4346507;33;20017;-86
2021/06/21 09:14:23;;;;;;;;;;;20.90;83.30;;;;;;4334027;33;20004;-87
2021/06/21 09:16:51;;;;;;;;;;;20.90;83.20;;;;;;4333929;33;20005;-87
2021/06/21 09:19:18;;;;;;;;;;;20.90;83.30;;;;;;4333877;33;20015;-87
2021/06/21 09:21:46;;;;;;;;;;;20.90;83.20;;;;;;4333622;33;20061;-87
2021/06/21 09:24:22;;;;;;;;;;;20.90;83.10;;;;;;4333637;33;20045;-87
2021/06/21 09:26:54;;;;;;;;;;;20.90;83.10;;;;;;4334142;33;20450;-87
2021/06/21 09:29:52;;;;;;;;;;;20.80;83.00;;;;;;4333898;33;19997;-87
2021/06/21 09:32:43;;;;;;;;;;;20.80;83.10;;;;;;4329811;33;20388;-87
2021/06/21 09:35:33;;;;;;;;;;;20.80;83.00;;;;;;4345115;33;31278;-87
2021/06/21 09:38:20;;;;;;;;;;;20.80;83.10;;;;;;4328456;33;33438;-87
2021/06/21 09:40:49;;;;;;;;;;;20.80;83.20;;;;;;4345118;33;34653;-87
2021/06/21 09:43:18;;;;;;;;;;;20.80;83.20;;;;;;4346039;33;32966;-86
2021/06/21 09:46:04;;;;;;;;;;;20.80;83.20;;;;;;4332574;33;44253;-86
2021/06/21 09:48:40;;;;;;;;;;;20.80;83.20;;;;;;4345911;33;19997;-86
2021/06/21 09:51:22;;;;;;;;;;;20.80;83.10;;;;;;4346095;33;20078;-86
2021/06/21 09:53:56;;;;;;;;;;;20.80;83.00;;;;;;4333590;33;20005;-86
2021/06/21 09:56:42;;;;;;;;;;;20.80;82.80;;;;;;4333670;33;20341;-85
2021/06/21 09:59:20;;;;;;;;;;;20.70;82.80;;;;;;4344545;33;37333;-85
2021/06/21 10:02:05;;;;;;;;;;;20.70;82.70;;;;;;4347857;32;20013;-83
2021/06/21 10:04:34;;;;;;;;;;;20.70;82.70;;;;;;4347085;32;24933;-85
2021/06/21 10:07:05;;;;;;;;;;;20.70;82.80;;;;;;4347694;32;20020;-85
2021/06/21 10:09:32;;;;;;;;;;;20.60;83.50;;;;;;4347135;32;38613;-85
2021/06/21 10:11:59;;;;;;;;;;;20.60;82.90;;;;;;4346835;32;35932;-85
2021/06/21 10:14:27;;;;;;;;;;;20.60;82.90;;;;;;4347351;32;28930;-85
2021/06/21 10:16:55;;;;;;;;;;;20.60;83.00;;;;;;4346735;32;34193;-84
2021/06/21 10:19:28;;;;;;;;;;;20.60;83.00;;;;;;4347908;32;20011;-84
2021/06/21 10:21:58;;;;;;;;;;;20.60;83.00;;;;;;4348067;32;20001;-85
2021/06/21 10:24:31;;;;;;;;;;;20.60;83.00;;;;;;4347224;32;20008;-85
2021/06/21 10:27:03;;;;;;;;;;;20.60;83.00;;;;;;4334988;33;31449;-84
2021/06/21 10:29:30;;;;;;;;;;;20.60;83.00;;;;;;4347570;33;22842;-84
2021/06/21 10:32:03;;;;;;;;;;;20.60;83.10;;;;;;4335135;32;20098;-85
2021/06/21 10:34:35;;;;;;;;;;;20.60;83.00;;;;;;4360706;33;34382;-85
2021/06/21 10:37:02;;;;;;;;;;;20.60;83.00;;;;;;4334344;33;41136;-84
2021/06/21 10:39:33;;;;;;;;;;;20.60;83.10;;;;;;4347129;33;20436;-84
2021/06/21 10:42:07;;;;;;;;;;;20.50;83.10;;;;;;4335404;33;20056;-85
2021/06/21 10:44:41;;;;;;;;;;;20.50;83.10;;;;;;4348048;33;20012;-83
2021/06/21 10:47:27;;;;;;;;;;;20.60;83.20;;;;;;4361261;33;20064;-85
2021/06/21 10:50:14;;;;;;;;;;;20.50;83.10;;;;;;4347223;33;20074;-85
2021/06/21 10:52:53;;;;;;;;;;;20.50;83.10;;;;;;4360537;33;22197;-85
2021/06/21 10:55:33;;;;;;;;;;;20.50;83.20;;;;;;4363416;32;20013;-85
2021/06/21 10:58:08;;;;;;;;;;;20.50;83.10;;;;;;4350259;32;20008;-87
2021/06/21 11:00:39;;;;;;;;;;;20.50;83.10;;;;;;4364107;32;20022;-85
2021/06/21 11:03:29;;;;;;;;;;;20.50;83.00;;;;;;4363939;32;20004;-84
2021/06/21 11:05:57;;;;;;;;;;;20.50;83.00;;;;;;4363772;32;20362;-85
2021/06/21 11:08:28;;;;;;;;;;;20.50;83.00;;;;;;4349357;32;34811;-86
2021/06/21 11:10:58;;;;;;;;;;;20.50;83.00;;;;;;4363216;32;32525;-85
2021/06/21 11:13:32;;;;;;;;;;;20.50;83.10;;;;;;4350574;32;20015;-85
2021/06/21 11:16:14;;;;;;;;;;;20.50;83.10;;;;;;4363351;32;20064;-84
2021/06/21 11:18:43;;;;;;;;;;;20.50;83.20;;;;;;4364193;32;20060;-85
2021/06/21 11:21:13;;;;;;;;;;;20.40;83.10;;;;;;4363787;32;20047;-86
2021/06/21 11:23:51;;;;;;;;;;;20.50;83.30;;;;;;4350401;32;20383;-86
2021/06/21 11:26:43;;;;;;;;;;;20.40;83.20;;;;;;4363354;32;20307;-87
2021/06/21 11:29:29;;;;;;;;;;;20.50;83.20;;;;;;4336285;32;43657;-85
2021/06/21 11:32:02;;;;;;;;;;;20.50;83.30;;;;;;4362489;32;43351;-87
2021/06/21 11:34:48;;;;;;;;;;;20.50;83.30;;;;;;4349843;32;20385;-86
2021/06/21 11:37:36;;;;;;;;;;;20.50;83.40;;;;;;4350154;32;19997;-85
2021/06/21 11:40:32;;;;;;;;;;;20.50;83.40;;;;;;4363211;32;20020;-85
2021/06/21 11:43:02;;;;;;;;;;;20.50;83.60;;;;;;4336462;32;43681;-85
2021/06/21 11:45:49;;;;;;;;;;;20.50;83.60;;;;;;4363470;32;20009;-85
2021/06/21 11:48:32;;;;;;;;;;;20.50;83.60;;;;;;4363079;32;20016;-85
2021/06/21 11:51:12;;;;;;;;;;;20.60;83.50;;;;;;4349548;32;20381;-85
2021/06/21 11:53:46;;;;;;;;;;;20.60;83.40;;;;;;4349465;32;20088;-85
2021/06/21 11:56:25;;;;;;;;;;;20.50;83.40;;;;;;4362843;32;30127;-85
2021/06/21 11:58:59;;;;;;;;;;;20.60;83.50;;;;;;4336417;32;38238;-85
2021/06/21 12:01:31;;;;;;;;;;;20.60;83.50;;;;;;4362871;32;20005;-85
2021/06/21 12:04:03;;;;;;;;;;;20.60;83.60;;;;;;4335968;32;45837;-85
2021/06/21 12:06:36;;;;;;;;;;;20.60;83.50;;;;;;4349032;32;20020;-85
2021/06/21 12:09:09;;;;;;;;;;;20.60;83.50;;;;;;4360685;32;45096;-85
2021/06/21 12:11:39;;;;;;;;;;;20.60;83.50;;;;;;4348737;32;43656;-85
2021/06/21 12:14:13;;;;;;;;;;;20.60;83.50;;;;;;4349215;32;20406;-84
2021/06/21 12:16:43;;;;;;;;;;;20.60;83.50;;;;;;4349679;32;20016;-85
2021/06/21 12:19:23;;;;;;;;;;;20.70;83.60;;;;;;4349693;32;20034;-86
2021/06/21 12:21:53;;;;;;;;;;;20.70;83.50;;;;;;4336417;32;36441;-85
2021/06/21 12:24:23;;;;;;;;;;;20.70;83.50;;;;;;4362095;32;27146;-85
2021/06/21 12:26:57;;;;;;;;;;;20.70;83.60;;;;;;4349021;32;19992;-85
2021/06/21 12:29:33;;;;;;;;;;;20.70;83.60;;;;;;4335995;32;42742;-85
2021/06/21 12:32:05;;;;;;;;;;;20.60;83.50;;;;;;4348716;32;43917;-85
2021/06/21 12:34:49;;;;;;;;;;;20.70;83.60;;;;;;4349193;32;19997;-84
2021/06/21 12:37:27;;;;;;;;;;;20.70;83.60;;;;;;4336783;32;20000;-85
2021/06/21 12:40:01;;;;;;;;;;;20.70;83.60;;;;;;4347964;32;43627;-85
2021/06/21 12:42:34;;;;;;;;;;;20.70;83.60;;;;;;4348784;32;20007;-86
2021/06/21 12:45:08;;;;;;;;;;;20.70;83.60;;;;;;4348594;32;25542;-84
2021/06/21 12:47:45;;;;;;;;;;;20.70;83.60;;;;;;4362676;32;20009;-84
2021/06/21 12:50:17;;;;;;;;;;;20.70;83.60;;;;;;4362693;32;20107;-84
2021/06/21 12:52:46;;;;;;;;;;;20.70;83.60;;;;;;4335600;32;45108;-84
2021/06/21 12:55:15;;;;;;;;;;;20.70;83.60;;;;;;4347594;32;42939;-84
2021/06/21 12:58:02;;;;;;;;;;;20.80;83.70;;;;;;4348493;32;23053;-84
2021/06/21 13:00:43;;;;;;;;;;;20.80;83.70;;;;;;4349003;32;20001;-85
2021/06/21 13:03:21;;;;;;;;;;;20.80;83.70;;;;;;4361740;32;20032;-85
2021/06/21 13:05:51;;;;;;;;;;;20.80;83.80;;;;;;4349015;32;20000;-84
2021/06/21 13:08:33;;;;;;;;;;;20.80;83.80;;;;;;4362477;32;20497;-84
2021/06/21 13:11:06;;;;;;;;;;;20.80;83.80;;;;;;4347277;32;44941;-85
2021/06/21 13:13:44;;;;;;;;;;;20.90;83.80;;;;;;4349091;32;20019;-84
2021/06/21 13:16:18;;;;;;;;;;;20.90;83.80;;;;;;4348147;32;25842;-84
2021/06/21 13:18:52;;;;;;;;;;;20.90;83.90;;;;;;4362248;32;20027;-84
2021/06/21 13:21:38;;;;;;;;;;;20.90;83.90;;;;;;4348853;32;20056;-84
2021/06/21 13:24:06;;;;;;;;;;;20.90;83.80;;;;;;4348801;32;20045;-84
2021/06/21 13:26:36;;;;;;;;;;;20.90;83.80;;;;;;4361717;32;20373;-84
2021/06/21 13:29:23;;;;;;;;;;;20.90;83.80;;;;;;4336174;32;20001;-84
2021/06/21 13:31:51;;;;;;;;;;;20.90;83.70;;;;;;4348174;32;21688;-84
2021/06/21 13:34:37;;;;;;;;;;;20.90;83.80;;;;;;4361493;32;27463;-84
2021/06/21 13:37:05;;;;;;;;;;;20.90;84.60;;;;;;4347927;32;34159;-84
2021/06/21 13:39:33;;;;;;;;;;;21.00;83.90;;;;;;4360784;32;38124;-84
2021/06/21 13:42:03;;;;;;;;;;;21.00;83.90;;;;;;4346927;32;44317;-84
2021/06/21 13:44:30;;;;;;;;;;;21.00;83.90;;;;;;4335154;32;41325;-83
2021/06/21 13:46:57;;;;;;;;;;;21.00;83.90;;;;;;4362001;32;20021;-84
2021/06/21 13:49:24;;;;;;;;;;;21.00;83.80;;;;;;4347272;32;43674;-84
2021/06/21 13:51:52;;;;;;;;;;;21.00;84.60;;;;;;4360613;32;44992;-84
2021/06/21 13:54:19;;;;;;;;;;;21.00;83.80;;;;;;4347917;32;20071;-84
2021/06/21 13:56:47;;;;;;;;;;;21.00;83.80;;;;;;4361211;32;20004;-83
2021/06/21 13:59:14;;;;;;;;;;;21.00;83.80;;;;;;4335880;32;20072;-83
2021/06/21 14:01:51;;;;;;;;;;;21.10;83.90;;;;;;4361272;32;20050;-84
2021/06/21 14:04:24;;;;;;;;;;;21.10;83.90;;;;;;4347722;32;20011;-83
2021/06/21 14:06:51;;;;;;;;;;;21.10;83.80;;;;;;4361499;32;20019;-83
2021/06/21 14:09:18;;;;;;;;;;;21.10;83.70;;;;;;4347347;32;20011;-83
2021/06/21 14:11:51;;;;;;;;;;;21.10;83.60;;;;;;4347996;32;20008;-84
2021/06/21 14:14:20;;;;;;;;;;;21.10;83.50;;;;;;4348393;32;20075;-83
2021/06/21 14:16:48;;;;;;;;;;;21.10;83.40;;;;;;4346847;32;35243;-84
2021/06/21 14:19:15;;;;;;;;;;;21.10;83.30;;;;;;4334244;32;43159;-82
2021/06/21 14:21:42;;;;;;;;;;;21.20;83.30;;;;;;4346725;32;45287;-84
2021/06/21 14:24:12;;;;;;;;;;;21.20;83.20;;;;;;4346619;32;44332;-83
2021/06/21 14:26:40;;;;;;;;;;;21.20;83.20;;;;;;4360196;32;43954;-83
2021/06/21 14:29:07;;;;;;;;;;;21.20;83.20;;;;;;4360986;32;20001;-83
2021/06/21 14:31:36;;;;;;;;;;;21.20;83.10;;;;;;4359739;33;44466;-83
2021/06/21 14:34:04;;;;;;;;;;;21.30;83.00;;;;;;4334484;33;44707;-84
2021/06/21 14:36:31;;;;;;;;;;;21.30;83.00;;;;;;4346191;33;43092;-82
2021/06/21 14:38:58;;;;;;;;;;;21.30;82.90;;;;;;4334552;33;43481;-83
2021/06/21 14:41:25;;;;;;;;;;;21.20;82.70;;;;;;4346317;33;45028;-83
2021/06/21 14:43:52;;;;;;;;;;;21.30;82.70;;;;;;4361253;32;20001;-83